sensor_id;sensor_type;location;lat;lon;timestamp;temperature;humidity
1678;DHT22;6034;46.864;15.216;2023-12-20T06:00:19;5.10;94.40
1678;DHT22;6034;46.864;15.216;2023-12-20T06:02:47;5.10;94.40
1678;DHT22;6034;46.864;15.216;2023-12-20T06:05:15;5.30;94.70
1678;DHT22;6034;46.864;15.216;2023-12-20T06:07:42;5.40;94.70
1678;DHT22;6034;46.864;15.216;2023-12-20T06:10:10;5.40;94.80
1678;DHT22;6034;46.864;15.216;2023-12-20T06:12:38;5.40;94.50
1678;DHT22;6034;46.864;15.216;2023-12-20T06:15:06;5.40;95.00
1678;DHT22;6034;46.864;15.216;2023-12-20T06:17:35;4.80;95.50
1678;DHT22;6034;46.864;15.216;2023-12-20T06:20:03;4.70;96.10
1678;DHT22;6034;46.864;15.216;2023-12-20T06:22:34;4.40;96.70
1678;DHT22;6034;46.864;15.216;2023-12-20T06:25:01;4.50;96.30
1678;DHT22;6034;46.864;15.216;2023-12-20T06:27:29;4.60;95.90
1678;DHT22;6034;46.864;15.216;2023-12-20T06:29:56;4.70;95.70
1678;DHT22;6034;46.864;15.216;2023-12-20T06:32:23;4.60;95.60
1678;DHT22;6034;46.864;15.216;2023-12-20T06:34:52;4.80;95.60
1678;DHT22;6034;46.864;15.216;2023-12-20T06:37:19;4.90;95.90
1678;DHT22;6034;46.864;15.216;2023-12-20T06:39:46;4.90;96.30
1678;DHT22;6034;46.864;15.216;2023-12-20T06:42:14;5.00;96.60
1678;DHT22;6034;46.864;15.216;2023-12-20T06:44:41;5.00;96.60
1678;DHT22;6034;46.864;15.216;2023-12-20T06:47:08;5.00;96.60
1678;DHT22;6034;46.864;15.216;2023-12-20T06:49:35;5.10;96.70
1678;DHT22;6034;46.864;15.216;2023-12-20T06:52:05;5.20;96.60
1678;DHT22;6034;46.864;15.216;2023-12-20T06:54:32;5.20;96.50
1678;DHT22;6034;46.864;15.216;2023-12-20T06:57:00;5.20;96.60
1678;DHT22;6034;46.864;15.216;2023-12-20T06:59:28;5.20;95.90
1678;DHT22;6034;46.864;15.216;2023-12-20T07:01:57;5.20;95.70
1678;DHT22;6034;46.864;15.216;2023-12-20T07:04:24;5.20;96.60
1678;DHT22;6034;46.864;15.216;2023-12-20T07:06:51;5.20;97.00
1678;DHT22;6034;46.864;15.216;2023-12-20T07:09:24;4.90;97.90
1678;DHT22;6034;46.864;15.216;2023-12-20T07:11:52;5.00;97.70
1678;DHT22;6034;46.864;15.216;2023-12-20T07:14:19;3.90;98.30
1678;DHT22;6034;46.864;15.216;2023-12-20T07:16:58;4.30;98.50
1678;DHT22;6034;46.864;15.216;2023-12-20T07:19:28;4.40;97.80
1678;DHT22;6034;46.864;15.216;2023-12-20T07:21:56;4.40;97.60
1678;DHT22;6034;46.864;15.216;2023-12-20T07:24:24;4.40;97.30
1678;DHT22;6034;46.864;15.216;2023-12-20T07:26:52;4.50;97.10
1678;DHT22;6034;46.864;15.216;2023-12-20T07:29:19;4.60;97.30
1678;DHT22;6034;46.864;15.216;2023-12-20T07:31:46;4.80;97.50
1678;DHT22;6034;46.864;15.216;2023-12-20T07:34:14;4.80;97.50
1678;DHT22;6034;46.864;15.216;2023-12-20T07:36:42;4.70;97.80
1678;DHT22;6034;46.864;15.216;2023-12-20T07:39:09;4.80;97.40
1678;DHT22;6034;46.864;15.216;2023-12-20T07:41:38;4.80;97.70
1678;DHT22;6034;46.864;15.216;2023-12-20T07:44:06;5.00;97.90
1678;DHT22;6034;46.864;15.216;2023-12-20T07:46:34;5.00;97.90
1678;DHT22;6034;46.864;15.216;2023-12-20T07:49:01;5.10;98.00
1678;DHT22;6034;46.864;15.216;2023-12-20T07:51:28;5.20;98.00
1678;DHT22;6034;46.864;15.216;2023-12-20T07:53:56;5.10;98.00
1678;DHT22;6034;46.864;15.216;2023-12-20T07:56:23;5.20;98.10
1678;DHT22;6034;46.864;15.216;2023-12-20T07:58:52;5.20;98.10
1678;DHT22;6034;46.864;15.216;2023-12-20T08:01:19;5.20;98.10
1678;DHT22;6034;46.864;15.216;2023-12-20T08:03:48;5.30;98.00
1678;DHT22;6034;46.864;15.216;2023-12-20T08:06:16;5.30;98.00
1678;DHT22;6034;46.864;15.216;2023-12-20T08:08:43;5.20;98.30
1678;DHT22;6034;46.864;15.216;2023-12-20T08:11:11;5.20;98.40
1678;DHT22;6034;46.864;15.216;2023-12-20T08:13:38;5.10;98.70
1678;DHT22;6034;46.864;15.216;2023-12-20T08:16:07;5.20;98.80
1678;DHT22;6034;46.864;15.216;2023-12-20T08:18:34;5.10;98.70
1678;DHT22;6034;46.864;15.216;2023-12-20T08:21:02;5.20;98.40
1678;DHT22;6034;46.864;15.216;2023-12-20T08:23:29;5.30;97.90
1678;DHT22;6034;46.864;15.216;2023-12-20T08:25:57;5.40;98.20
1678;DHT22;6034;46.864;15.216;2023-12-20T08:28:24;5.40;97.40
1678;DHT22;6034;46.864;15.216;2023-12-20T08:30:51;5.40;97.20
1678;DHT22;6034;46.864;15.216;2023-12-20T08:33:21;5.40;97.30
1678;DHT22;6034;46.864;15.216;2023-12-20T08:35:48;5.40;97.70
1678;DHT22;6034;46.864;15.216;2023-12-20T08:38:16;5.50;97.30
1678;DHT22;6034;46.864;15.216;2023-12-20T08:40:43;5.60;97.10
1678;DHT22;6034;46.864;15.216;2023-12-20T08:43:11;5.60;97.40
1678;DHT22;6034;46.864;15.216;2023-12-20T08:45:38;5.70;97.70
1678;DHT22;6034;46.864;15.216;2023-12-20T08:48:06;5.70;97.90
1678;DHT22;6034;46.864;15.216;2023-12-20T08:50:35;5.80;98.50
1678;DHT22;6034;46.864;15.216;2023-12-20T08:53:03;5.90;98.80
1678;DHT22;6034;46.864;15.216;2023-12-20T08:55:30;5.90;99.80
1678;DHT22;6034;46.864;15.216;2023-12-20T08:57:58;5.70;99.90
1678;DHT22;6034;46.864;15.216;2023-12-20T09:00:25;5.70;99.60
1678;DHT22;6034;46.864;15.216;2023-12-20T09:02:53;5.80;99.20
1678;DHT22;6034;46.864;15.216;2023-12-20T09:05:21;5.90;97.80
1678;DHT22;6034;46.864;15.216;2023-12-20T09:07:50;5.90;98.60
1678;DHT22;6034;46.864;15.216;2023-12-20T09:10:17;6.10;97.20
1678;DHT22;6034;46.864;15.216;2023-12-20T09:12:48;6.10;97.90
1678;DHT22;6034;46.864;15.216;2023-12-20T09:15:15;6.30;97.00
1678;DHT22;6034;46.864;15.216;2023-12-20T09:17:42;6.30;97.50
1678;DHT22;6034;46.864;15.216;2023-12-20T09:20:10;6.40;97.90
1678;DHT22;6034;46.864;15.216;2023-12-20T09:22:39;6.40;99.90
1678;DHT22;6034;46.864;15.216;2023-12-20T09:25:09;6.50;99.90
1678;DHT22;6034;46.864;15.216;2023-12-20T09:27:38;6.60;99.90
1678;DHT22;6034;46.864;15.216;2023-12-20T09:30:06;6.40;99.90
1678;DHT22;6034;46.864;15.216;2023-12-20T09:32:34;6.50;99.90
1678;DHT22;6034;46.864;15.216;2023-12-20T09:35:01;6.20;99.90
1678;DHT22;6034;46.864;15.216;2023-12-20T09:37:31;6.00;99.40
1678;DHT22;6034;46.864;15.216;2023-12-20T09:39:58;6.10;99.90
1678;DHT22;6034;46.864;15.216;2023-12-20T09:42:35;6.20;99.90
1678;DHT22;6034;46.864;15.216;2023-12-20T09:45:08;6.20;99.90
1678;DHT22;6034;46.864;15.216;2023-12-20T09:47:35;6.30;99.90
1678;DHT22;6034;46.864;15.216;2023-12-20T09:50:03;6.50;99.70
1678;DHT22;6034;46.864;15.216;2023-12-20T09:52:31;6.60;98.70
1678;DHT22;6034;46.864;15.216;2023-12-20T09:55:01;6.70;97.70
1678;DHT22;6034;46.864;15.216;2023-12-20T09:57:33;6.80;96.90
1678;DHT22;6034;46.864;15.216;2023-12-20T10:00:00;6.80;97.60
1678;DHT22;6034;46.864;15.216;2023-12-20T10:02:28;6.90;98.40
1678;DHT22;6034;46.864;15.216;2023-12-20T10:04:55;7.00;98.80
1678;DHT22;6034;46.864;15.216;2023-12-20T10:07:23;7.00;98.70
1678;DHT22;6034;46.864;15.216;2023-12-20T10:09:51;7.10;97.90
1678;DHT22;6034;46.864;15.216;2023-12-20T10:12:21;7.20;97.00
1678;DHT22;6034;46.864;15.216;2023-12-20T10:14:51;7.30;96.40
1678;DHT22;6034;46.864;15.216;2023-12-20T10:17:18;7.40;95.70
1678;DHT22;6034;46.864;15.216;2023-12-20T10:19:45;7.40;96.00
1678;DHT22;6034;46.864;15.216;2023-12-20T10:22:12;7.50;95.40
1678;DHT22;6034;46.864;15.216;2023-12-20T10:24:40;7.60;96.00
1678;DHT22;6034;46.864;15.216;2023-12-20T10:27:08;7.80;95.30
1678;DHT22;6034;46.864;15.216;2023-12-20T10:29:37;7.90;95.00
1678;DHT22;6034;46.864;15.216;2023-12-20T10:32:29;8.00;95.70
1678;DHT22;6034;46.864;15.216;2023-12-20T10:34:57;8.10;96.10
1678;DHT22;6034;46.864;15.216;2023-12-20T10:37:25;8.20;96.30
1678;DHT22;6034;46.864;15.216;2023-12-20T10:39:54;8.30;96.30
1678;DHT22;6034;46.864;15.216;2023-12-20T10:42:26;8.40;96.60
1678;DHT22;6034;46.864;15.216;2023-12-20T10:44:53;8.60;96.60
1678;DHT22;6034;46.864;15.216;2023-12-20T10:47:21;8.60;96.50
1678;DHT22;6034;46.864;15.216;2023-12-20T10:49:52;8.80;96.80
1678;DHT22;6034;46.864;15.216;2023-12-20T10:52:19;8.80;97.70
1678;DHT22;6034;46.864;15.216;2023-12-20T10:54:50;8.80;97.50
1678;DHT22;6034;46.864;15.216;2023-12-20T10:57:18;8.80;96.20
1678;DHT22;6034;46.864;15.216;2023-12-20T10:59:49;8.80;95.70
1678;DHT22;6034;46.864;15.216;2023-12-20T11:02:20;8.90;95.80
1678;DHT22;6034;46.864;15.216;2023-12-20T11:04:53;8.90;96.00
1678;DHT22;6034;46.864;15.216;2023-12-20T11:07:32;9.00;96.00
1678;DHT22;6034;46.864;15.216;2023-12-20T11:10:03;9.00;95.70
1678;DHT22;6034;46.864;15.216;2023-12-20T11:12:42;9.00;95.10
1678;DHT22;6034;46.864;15.216;2023-12-20T11:15:12;9.00;95.50
1678;DHT22;6034;46.864;15.216;2023-12-20T11:17:44;9.00;97.10
1678;DHT22;6034;46.864;15.216;2023-12-20T11:20:15;8.80;98.10
1678;DHT22;6034;46.864;15.216;2023-12-20T11:22:53;8.70;94.70
1678;DHT22;6034;46.864;15.216;2023-12-20T11:25:22;8.50;95.50
1678;DHT22;6034;46.864;15.216;2023-12-20T11:28:07;8.50;96.80
1678;DHT22;6034;46.864;15.216;2023-12-20T11:30:43;8.60;97.60
1678;DHT22;6034;46.864;15.216;2023-12-20T11:33:13;8.30;98.10
1678;DHT22;6034;46.864;15.216;2023-12-20T11:35:45;7.90;97.60
1678;DHT22;6034;46.864;15.216;2023-12-20T11:38:14;8.00;97.30
1678;DHT22;6034;46.864;15.216;2023-12-20T11:40:42;8.10;97.90
1678;DHT22;6034;46.864;15.216;2023-12-20T11:43:10;8.10;98.30
1678;DHT22;6034;46.864;15.216;2023-12-20T11:45:37;8.00;98.40
1678;DHT22;6034;46.864;15.216;2023-12-20T11:48:07;8.20;98.30
1678;DHT22;6034;46.864;15.216;2023-12-20T11:50:34;8.40;98.20
1678;DHT22;6034;46.864;15.216;2023-12-20T11:53:04;8.40;98.30
1678;DHT22;6034;46.864;15.216;2023-12-20T11:55:31;8.30;98.40
1678;DHT22;6034;46.864;15.216;2023-12-20T11:57:58;8.30;98.50
1678;DHT22;6034;46.864;15.216;2023-12-20T12:00:26;8.00;97.80
1678;DHT22;6034;46.864;15.216;2023-12-20T12:02:58;8.20;97.50
1678;DHT22;6034;46.864;15.216;2023-12-20T12:05:25;8.30;97.50
1678;DHT22;6034;46.864;15.216;2023-12-20T12:07:53;8.40;98.70
1678;DHT22;6034;46.864;15.216;2023-12-20T12:10:22;8.50;99.60
1678;DHT22;6034;46.864;15.216;2023-12-20T12:12:49;8.60;99.90
1678;DHT22;6034;46.864;15.216;2023-12-20T12:15:17;8.50;99.70
1678;DHT22;6034;46.864;15.216;2023-12-20T12:17:45;8.50;99.10
1678;DHT22;6034;46.864;15.216;2023-12-20T12:20:20;8.30;98.10
1678;DHT22;6034;46.864;15.216;2023-12-20T12:22:57;8.30;97.90
1678;DHT22;6034;46.864;15.216;2023-12-20T12:25:28;8.30;98.00
1678;DHT22;6034;46.864;15.216;2023-12-20T12:27:56;8.40;98.50
1678;DHT22;6034;46.864;15.216;2023-12-20T12:30:24;8.10;98.60
1678;DHT22;6034;46.864;15.216;2023-12-20T12:32:52;8.60;99.10
1678;DHT22;6034;46.864;15.216;2023-12-20T12:35:20;8.60;99.30
1678;DHT22;6034;46.864;15.216;2023-12-20T12:37:48;8.60;99.20
1678;DHT22;6034;46.864;15.216;2023-12-20T12:40:16;8.60;99.30
1678;DHT22;6034;46.864;15.216;2023-12-20T12:42:46;8.70;99.10
1678;DHT22;6034;46.864;15.216;2023-12-20T12:45:14;8.70;99.20
1678;DHT22;6034;46.864;15.216;2023-12-20T12:47:42;8.70;98.80
1678;DHT22;6034;46.864;15.216;2023-12-20T12:50:09;8.70;98.70
1678;DHT22;6034;46.864;15.216;2023-12-20T12:52:36;8.70;99.10
1678;DHT22;6034;46.864;15.216;2023-12-20T12:55:05;8.70;99.20
1678;DHT22;6034;46.864;15.216;2023-12-20T12:57:33;8.70;99.10
1678;DHT22;6034;46.864;15.216;2023-12-20T13:00:02;8.70;99.20
1678;DHT22;6034;46.864;15.216;2023-12-20T13:02:30;8.70;98.80
1678;DHT22;6034;46.864;15.216;2023-12-20T13:04:58;8.70;99.30
1678;DHT22;6034;46.864;15.216;2023-12-20T13:07:26;8.80;99.10
1678;DHT22;6034;46.864;15.216;2023-12-20T13:09:54;8.80;97.90
1678;DHT22;6034;46.864;15.216;2023-12-20T13:12:21;8.80;98.20
1678;DHT22;6034;46.864;15.216;2023-12-20T13:14:48;8.40;99.90
1678;DHT22;6034;46.864;15.216;2023-12-20T13:17:19;8.30;99.50
1678;DHT22;6034;46.864;15.216;2023-12-20T13:19:46;8.40;98.20
1678;DHT22;6034;46.864;15.216;2023-12-20T13:22:15;8.40;98.10
1678;DHT22;6034;46.864;15.216;2023-12-20T13:24:43;8.40;98.20
1678;DHT22;6034;46.864;15.216;2023-12-20T13:27:10;8.50;98.20
1678;DHT22;6034;46.864;15.216;2023-12-20T13:29:38;8.00;96.90
1678;DHT22;6034;46.864;15.216;2023-12-20T13:32:06;8.20;97.60
1678;DHT22;6034;46.864;15.216;2023-12-20T13:34:35;8.30;96.90
1678;DHT22;6034;46.864;15.216;2023-12-20T13:37:03;8.20;97.00
1678;DHT22;6034;46.864;15.216;2023-12-20T13:39:32;8.00;98.50
1678;DHT22;6034;46.864;15.216;2023-12-20T13:41:59;8.00;98.50
1678;DHT22;6034;46.864;15.216;2023-12-20T13:44:26;8.00;98.60
1678;DHT22;6034;46.864;15.216;2023-12-20T13:46:54;7.30;99.90
1678;DHT22;6034;46.864;15.216;2023-12-20T13:49:21;7.60;99.90
1678;DHT22;6034;46.864;15.216;2023-12-20T13:51:53;7.80;99.90
1678;DHT22;6034;46.864;15.216;2023-12-20T13:54:21;7.90;99.90
1678;DHT22;6034;46.864;15.216;2023-12-20T13:56:49;7.90;99.10
1678;DHT22;6034;46.864;15.216;2023-12-20T13:59:16;7.90;99.70
1678;DHT22;6034;46.864;15.216;2023-12-20T14:01:43;7.80;99.90
1678;DHT22;6034;46.864;15.216;2023-12-20T14:04:10;7.90;99.90
1678;DHT22;6034;46.864;15.216;2023-12-20T14:06:38;7.90;99.90
1678;DHT22;6034;46.864;15.216;2023-12-20T14:09:07;7.90;99.90
1678;DHT22;6034;46.864;15.216;2023-12-20T14:11:37;7.80;99.80
1678;DHT22;6034;46.864;15.216;2023-12-20T14:14:07;7.80;99.90
1678;DHT22;6034;46.864;15.216;2023-12-20T14:16:34;7.90;98.80
1678;DHT22;6034;46.864;15.216;2023-12-20T14:19:02;7.90;99.20
1678;DHT22;6034;46.864;15.216;2023-12-20T14:21:31;8.00;98.80
1678;DHT22;6034;46.864;15.216;2023-12-20T14:23:58;7.90;95.00
1678;DHT22;6034;46.864;15.216;2023-12-20T14:26:27;7.90;94.90
1678;DHT22;6034;46.864;15.216;2023-12-20T14:28:54;8.00;95.00
1678;DHT22;6034;46.864;15.216;2023-12-20T14:31:22;8.00;94.50
1678;DHT22;6034;46.864;15.216;2023-12-20T14:33:50;7.90;97.80
1678;DHT22;6034;46.864;15.216;2023-12-20T14:36:19;7.80;94.70
1678;DHT22;6034;46.864;15.216;2023-12-20T14:38:47;7.80;95.30
1678;DHT22;6034;46.864;15.216;2023-12-20T14:41:16;7.90;94.30
1678;DHT22;6034;46.864;15.216;2023-12-20T14:43:46;7.80;93.60
1678;DHT22;6034;46.864;15.216;2023-12-20T14:46:14;7.80;94.10
1678;DHT22;6034;46.864;15.216;2023-12-20T14:48:41;7.90;95.20
1678;DHT22;6034;46.864;15.216;2023-12-20T14:51:09;7.60;96.60
1678;DHT22;6034;46.864;15.216;2023-12-20T14:53:37;7.30;99.00
1678;DHT22;6034;46.864;15.216;2023-12-20T14:56:05;7.30;99.70
1678;DHT22;6034;46.864;15.216;2023-12-20T14:58:33;7.60;99.90
1678;DHT22;6034;46.864;15.216;2023-12-20T15:01:04;7.50;99.80
1678;DHT22;6034;46.864;15.216;2023-12-20T15:03:34;7.60;99.60
1678;DHT22;6034;46.864;15.216;2023-12-20T15:06:01;7.70;99.10
1678;DHT22;6034;46.864;15.216;2023-12-20T15:08:29;7.70;98.40
1678;DHT22;6034;46.864;15.216;2023-12-20T15:10:56;7.60;97.90
1678;DHT22;6034;46.864;15.216;2023-12-20T15:13:23;7.50;97.40
1678;DHT22;6034;46.864;15.216;2023-12-20T15:15:51;7.50;97.30
1678;DHT22;6034;46.864;15.216;2023-12-20T15:18:19;7.60;97.30
1678;DHT22;6034;46.864;15.216;2023-12-20T15:20:47;7.70;97.20
1678;DHT22;6034;46.864;15.216;2023-12-20T15:23:15;7.70;97.30
1678;DHT22;6034;46.864;15.216;2023-12-20T15:25:43;7.60;97.80
1678;DHT22;6034;46.864;15.216;2023-12-20T15:28:10;7.60;98.00
1678;DHT22;6034;46.864;15.216;2023-12-20T15:30:37;7.40;98.00
1678;DHT22;6034;46.864;15.216;2023-12-20T15:33:05;7.40;98.10
1678;DHT22;6034;46.864;15.216;2023-12-20T15:35:34;7.20;97.30
1678;DHT22;6034;46.864;15.216;2023-12-20T15:38:01;7.20;98.00
1678;DHT22;6034;46.864;15.216;2023-12-20T15:40:31;7.10;98.30
1678;DHT22;6034;46.864;15.216;2023-12-20T15:42:58;7.20;98.50
1678;DHT22;6034;46.864;15.216;2023-12-20T15:45:26;7.30;98.20
1678;DHT22;6034;46.864;15.216;2023-12-20T15:47:53;7.10;97.40
1678;DHT22;6034;46.864;15.216;2023-12-20T15:50:21;7.10;97.10
1678;DHT22;6034;46.864;15.216;2023-12-20T15:52:50;7.20;97.00
1678;DHT22;6034;46.864;15.216;2023-12-20T15:55:18;7.20;97.30
1678;DHT22;6034;46.864;15.216;2023-12-20T15:57:46;7.20;96.90
1678;DHT22;6034;46.864;15.216;2023-12-20T16:00:15;6.90;96.70
1678;DHT22;6034;46.864;15.216;2023-12-20T16:02:42;6.80;97.50
1678;DHT22;6034;46.864;15.216;2023-12-20T16:05:09;7.00;97.20
1678;DHT22;6034;46.864;15.216;2023-12-20T16:07:37;7.10;97.50
1678;DHT22;6034;46.864;15.216;2023-12-20T16:10:06;7.10;97.60
1678;DHT22;6034;46.864;15.216;2023-12-20T16:12:34;7.00;97.90
1678;DHT22;6034;46.864;15.216;2023-12-20T16:15:01;7.00;98.20
1678;DHT22;6034;46.864;15.216;2023-12-20T16:17:28;7.00;97.90
1678;DHT22;6034;46.864;15.216;2023-12-20T16:19:57;7.00;97.60
1678;DHT22;6034;46.864;15.216;2023-12-20T16:22:29;7.00;97.60
1678;DHT22;6034;46.864;15.216;2023-12-20T16:24:56;7.00;97.50
1678;DHT22;6034;46.864;15.216;2023-12-20T16:27:25;7.00;97.50
1678;DHT22;6034;46.864;15.216;2023-12-20T16:29:52;6.80;97.30
1678;DHT22;6034;46.864;15.216;2023-12-20T16:32:20;6.80;97.60
1678;DHT22;6034;46.864;15.216;2023-12-20T16:34:47;6.80;97.80
1678;DHT22;6034;46.864;15.216;2023-12-20T16:37:15;6.80;97.50
1678;DHT22;6034;46.864;15.216;2023-12-20T16:39:42;6.70;97.50
1678;DHT22;6034;46.864;15.216;2023-12-20T16:42:10;6.70;96.70
1678;DHT22;6034;46.864;15.216;2023-12-20T16:44:39;6.60;96.70
1678;DHT22;6034;46.864;15.216;2023-12-20T16:47:07;6.70;96.30
1678;DHT22;6034;46.864;15.216;2023-12-20T16:49:34;6.70;96.10
1678;DHT22;6034;46.864;15.216;2023-12-20T16:52:02;6.50;95.60
1678;DHT22;6034;46.864;15.216;2023-12-20T16:54:29;6.50;96.30
1678;DHT22;6034;46.864;15.216;2023-12-20T16:56:56;6.60;96.30
1678;DHT22;6034;46.864;15.216;2023-12-20T16:59:24;6.60;96.20
1678;DHT22;6034;46.864;15.216;2023-12-20T17:01:52;6.60;96.50
1678;DHT22;6034;46.864;15.216;2023-12-20T17:04:20;6.70;95.90
1678;DHT22;6034;46.864;15.216;2023-12-20T17:06:49;6.60;96.30
1678;DHT22;6034;46.864;15.216;2023-12-20T17:09:16;6.50;95.80
1678;DHT22;6034;46.864;15.216;2023-12-20T17:11:43;6.50;96.30
1678;DHT22;6034;46.864;15.216;2023-12-20T17:14:11;6.60;96.30
1678;DHT22;6034;46.864;15.216;2023-12-20T17:16:39;6.50;96.10
1678;DHT22;6034;46.864;15.216;2023-12-20T17:19:07;6.50;96.20
1678;DHT22;6034;46.864;15.216;2023-12-20T17:21:35;6.50;96.00
1678;DHT22;6034;46.864;15.216;2023-12-20T17:24:03;6.50;95.80
1678;DHT22;6034;46.864;15.216;2023-12-20T17:26:30;6.50;95.70
1678;DHT22;6034;46.864;15.216;2023-12-20T17:28:58;6.40;96.00
1678;DHT22;6034;46.864;15.216;2023-12-20T17:31:25;6.00;95.10
1678;DHT22;6034;46.864;15.216;2023-12-20T17:33:52;5.90;95.30
1678;DHT22;6034;46.864;15.216;2023-12-20T17:36:22;5.90;95.60
1678;DHT22;6034;46.864;15.216;2023-12-20T17:38:49;6.10;95.80
1678;DHT22;6034;46.864;15.216;2023-12-20T17:41:17;6.20;95.80
1678;DHT22;6034;46.864;15.216;2023-12-20T17:43:44;5.90;95.50
1678;DHT22;6034;46.864;15.216;2023-12-20T17:46:11;6.10;94.90
1678;DHT22;6034;46.864;15.216;2023-12-20T17:48:39;6.20;95.30
1678;DHT22;6034;46.864;15.216;2023-12-20T17:51:06;6.20;95.30
1678;DHT22;6034;46.864;15.216;2023-12-20T17:53:35;5.90;95.40
1678;DHT22;6034;46.864;15.216;2023-12-20T17:56:03;6.10;95.70
1678;DHT22;6034;46.864;15.216;2023-12-20T17:58:31;6.10;95.40
1678;DHT22;6034;46.864;15.216;2023-12-20T18:00:58;6.10;95.60
1678;DHT22;6034;46.864;15.216;2023-12-20T18:03:26;6.20;95.40
1678;DHT22;6034;46.864;15.216;2023-12-20T18:05:55;6.00;95.40
1678;DHT22;6034;46.864;15.216;2023-12-20T18:08:24;6.10;95.30
1678;DHT22;6034;46.864;15.216;2023-12-20T18:10:54;6.00;95.10
1678;DHT22;6034;46.864;15.216;2023-12-20T18:13:23;5.80;95.40
1678;DHT22;6034;46.864;15.216;2023-12-20T18:15:51;5.70;95.30
1678;DHT22;6034;46.864;15.216;2023-12-20T18:18:20;5.80;95.50
1678;DHT22;6034;46.864;15.216;2023-12-20T18:20:50;5.90;95.40
1678;DHT22;6034;46.864;15.216;2023-12-20T18:23:20;6.00;95.20
1678;DHT22;6034;46.864;15.216;2023-12-20T18:25:49;6.00;94.90
1678;DHT22;6034;46.864;15.216;2023-12-20T18:28:22;6.00;94.90
1678;DHT22;6034;46.864;15.216;2023-12-20T18:30:51;5.90;94.80
1678;DHT22;6034;46.864;15.216;2023-12-20T18:33:20;5.70;95.10
1678;DHT22;6034;46.864;15.216;2023-12-20T18:35:49;5.70;96.00
1678;DHT22;6034;46.864;15.216;2023-12-20T18:38:18;5.00;96.60
1678;DHT22;6034;46.864;15.216;2023-12-20T18:43:15;4.70;97.10
1678;DHT22;6034;46.864;15.216;2023-12-20T18:45:48;4.90;97.90
1678;DHT22;6034;46.864;15.216;2023-12-20T18:48:18;5.10;97.60
1678;DHT22;6034;46.864;15.216;2023-12-20T18:50:48;5.10;97.80
1678;DHT22;6034;46.864;15.216;2023-12-20T18:53:18;5.10;97.80
1678;DHT22;6034;46.864;15.216;2023-12-20T18:55:47;5.00;97.80
1678;DHT22;6034;46.864;15.216;2023-12-20T18:58:16;5.10;97.80
1678;DHT22;6034;46.864;15.216;2023-12-20T19:00:45;4.90;98.10
1678;DHT22;6034;46.864;15.216;2023-12-20T19:03:16;4.80;97.90
1678;DHT22;6034;46.864;15.216;2023-12-20T19:05:45;5.00;97.80
1678;DHT22;6034;46.864;15.216;2023-12-20T19:08:14;5.20;97.70
1678;DHT22;6034;46.864;15.216;2023-12-20T19:10:43;5.10;97.60
1678;DHT22;6034;46.864;15.216;2023-12-20T19:13:12;5.20;97.70
1678;DHT22;6034;46.864;15.216;2023-12-20T19:15:42;5.20;97.80
1678;DHT22;6034;46.864;15.216;2023-12-20T19:18:11;5.00;98.40
1678;DHT22;6034;46.864;15.216;2023-12-20T19:20:42;4.80;99.00
1678;DHT22;6034;46.864;15.216;2023-12-20T19:23:11;4.80;99.60
1678;DHT22;6034;46.864;15.216;2023-12-20T19:25:42;4.90;99.40
1678;DHT22;6034;46.864;15.216;2023-12-20T19:28:12;4.80;99.80
1678;DHT22;6034;46.864;15.216;2023-12-20T19:30:42;4.80;99.60
1678;DHT22;6034;46.864;15.216;2023-12-20T19:33:11;4.80;99.30
1678;DHT22;6034;46.864;15.216;2023-12-20T19:35:42;4.80;99.30
1678;DHT22;6034;46.864;15.216;2023-12-20T19:38:13;4.90;99.10
1678;DHT22;6034;46.864;15.216;2023-12-20T19:40:43;4.90;99.00
1678;DHT22;6034;46.864;15.216;2023-12-20T19:43:13;4.90;98.80
1678;DHT22;6034;46.864;15.216;2023-12-20T19:45:45;4.90;98.60
1678;DHT22;6034;46.864;15.216;2023-12-20T19:48:15;4.80;98.60
1678;DHT22;6034;46.864;15.216;2023-12-20T19:50:49;4.80;99.00
1678;DHT22;6034;46.864;15.216;2023-12-20T19:53:19;4.80;99.20
1678;DHT22;6034;46.864;15.216;2023-12-20T19:55:52;4.80;99.10
1678;DHT22;6034;46.864;15.216;2023-12-20T19:58:25;4.70;99.00
1678;DHT22;6034;46.864;15.216;2023-12-20T20:00:54;4.70;99.00
1678;DHT22;6034;46.864;15.216;2023-12-20T20:03:26;4.80;99.00
1678;DHT22;6034;46.864;15.216;2023-12-20T20:05:58;4.80;99.00
1678;DHT22;6034;46.864;15.216;2023-12-20T20:08:27;4.80;99.20
1678;DHT22;6034;46.864;15.216;2023-12-20T20:10:59;4.70;99.10
1678;DHT22;6034;46.864;15.216;2023-12-20T20:13:29;4.60;99.30
1678;DHT22;6034;46.864;15.216;2023-12-20T20:16:00;4.60;99.70
1678;DHT22;6034;46.864;15.216;2023-12-20T20:18:30;4.60;99.80
1678;DHT22;6034;46.864;15.216;2023-12-20T20:21:01;4.50;99.90
1678;DHT22;6034;46.864;15.216;2023-12-20T20:23:31;4.60;99.80
1678;DHT22;6034;46.864;15.216;2023-12-20T20:26:01;4.60;99.90
1678;DHT22;6034;46.864;15.216;2023-12-20T20:28:31;4.60;99.90
1678;DHT22;6034;46.864;15.216;2023-12-20T20:31:00;4.60;99.90
1678;DHT22;6034;46.864;15.216;2023-12-20T20:33:29;4.60;99.90
1678;DHT22;6034;46.864;15.216;2023-12-20T20:36:01;4.60;99.90
1678;DHT22;6034;46.864;15.216;2023-12-20T20:38:36;4.20;99.90
1678;DHT22;6034;46.864;15.216;2023-12-20T20:41:06;4.30;99.90
1678;DHT22;6034;46.864;15.216;2023-12-20T20:43:35;4.40;99.90
1678;DHT22;6034;46.864;15.216;2023-12-20T20:46:04;4.50;99.90
1678;DHT22;6034;46.864;15.216;2023-12-20T20:48:35;4.40;99.90
1678;DHT22;6034;46.864;15.216;2023-12-20T20:51:08;4.40;99.90
1678;DHT22;6034;46.864;15.216;2023-12-20T20:53:37;4.40;99.90
1678;DHT22;6034;46.864;15.216;2023-12-20T20:56:06;4.30;99.90
1678;DHT22;6034;46.864;15.216;2023-12-20T20:58:36;4.10;99.90
1678;DHT22;6034;46.864;15.216;2023-12-20T21:01:05;4.20;99.90
1678;DHT22;6034;46.864;15.216;2023-12-20T21:03:33;4.30;99.90
1678;DHT22;6034;46.864;15.216;2023-12-20T21:06:00;4.20;99.90
1678;DHT22;6034;46.864;15.216;2023-12-20T21:08:29;4.20;99.90
1678;DHT22;6034;46.864;15.216;2023-12-20T21:10:56;4.10;99.90
1678;DHT22;6034;46.864;15.216;2023-12-20T21:13:24;3.90;99.90
1678;DHT22;6034;46.864;15.216;2023-12-20T21:15:52;4.10;99.90
1678;DHT22;6034;46.864;15.216;2023-12-20T21:18:19;4.10;99.90
1678;DHT22;6034;46.864;15.216;2023-12-20T21:20:47;4.30;99.90
1678;DHT22;6034;46.864;15.216;2023-12-20T21:23:15;4.30;99.90
1678;DHT22;6034;46.864;15.216;2023-12-20T21:25:44;4.20;99.90
1678;DHT22;6034;46.864;15.216;2023-12-20T21:28:11;4.30;99.90
1678;DHT22;6034;46.864;15.216;2023-12-20T21:30:39;4.20;99.90
1678;DHT22;6034;46.864;15.216;2023-12-20T21:33:06;4.10;99.90
1678;DHT22;6034;46.864;15.216;2023-12-20T21:35:33;4.00;99.90
1678;DHT22;6034;46.864;15.216;2023-12-20T21:38:01;4.10;99.90
1678;DHT22;6034;46.864;15.216;2023-12-20T21:40:29;4.20;99.90
1678;DHT22;6034;46.864;15.216;2023-12-20T21:42:59;4.30;99.90
1678;DHT22;6034;46.864;15.216;2023-12-20T21:45:26;4.40;99.90
1678;DHT22;6034;46.864;15.216;2023-12-20T21:47:53;4.40;99.90
1678;DHT22;6034;46.864;15.216;2023-12-20T21:50:21;4.40;99.90
1678;DHT22;6034;46.864;15.216;2023-12-20T21:52:48;4.40;99.90
1678;DHT22;6034;46.864;15.216;2023-12-20T21:55:16;4.30;99.90
1678;DHT22;6034;46.864;15.216;2023-12-20T21:57:44;4.30;99.90
1678;DHT22;6034;46.864;15.216;2023-12-20T22:00:14;4.40;99.90
1678;DHT22;6034;46.864;15.216;2023-12-20T22:02:41;4.40;99.90
1678;DHT22;6034;46.864;15.216;2023-12-20T22:05:09;4.30;99.90
1678;DHT22;6034;46.864;15.216;2023-12-20T22:07:37;4.40;99.90
1678;DHT22;6034;46.864;15.216;2023-12-20T22:10:05;4.40;99.90
1678;DHT22;6034;46.864;15.216;2023-12-20T22:12:33;4.50;99.90